createdAt,value
2022-09-28T00:02:26.783Z,18.41
2022-09-28T00:05:19.424Z,18.36
2022-09-28T00:08:11.560Z,18.38
2022-09-28T00:11:05.016Z,18.15
2022-09-28T00:14:03.701Z,16.89
2022-09-28T00:16:56.257Z,15.67
2022-09-28T00:19:48.541Z,15.09
2022-09-28T00:22:46.475Z,15.87
2022-09-28T00:25:38.863Z,16.63
2022-09-28T00:28:11.816Z,17.00
2022-09-28T00:31:04.190Z,17.16
2022-09-28T00:33:57.969Z,17.25
2022-09-28T00:36:51.031Z,17.41
2022-09-28T00:39:44.262Z,17.50
2022-09-28T00:42:29.390Z,17.64
2022-09-28T00:45:22.874Z,17.60
2022-09-28T00:48:15.143Z,17.64
2022-09-28T00:51:13.844Z,17.67
2022-09-28T00:54:08.767Z,17.70
2022-09-28T00:57:02.337Z,17.73
2022-09-28T00:59:47.893Z,17.76
2022-09-28T01:02:40.802Z,17.71
2022-09-28T01:05:33.989Z,17.67
2022-09-28T01:08:28.535Z,17.65
2022-09-28T01:11:22.081Z,17.67
2022-09-28T01:14:18.169Z,17.63
2022-09-28T01:17:09.698Z,17.68
2022-09-28T01:20:28.766Z,17.74
2022-09-28T01:23:47.169Z,17.82
2022-09-28T01:27:12.882Z,17.93
2022-09-28T01:30:08.989Z,17.99
2022-09-28T01:33:08.844Z,18.01
2022-09-28T01:35:54.100Z,17.81
2022-09-28T01:38:49.234Z,16.60
2022-09-28T01:41:44.951Z,15.45
2022-09-28T01:44:46.237Z,14.95
2022-09-28T01:47:41.770Z,15.75
2022-09-28T01:50:39.967Z,16.34
2022-09-28T01:53:40.498Z,16.56
2022-09-28T01:56:40.940Z,16.83
2022-09-28T01:59:38.110Z,17.03
2022-09-28T02:02:39.368Z,17.21
2022-09-28T02:05:38.217Z,17.38
2022-09-28T02:08:34.552Z,17.59
2022-09-28T02:11:26.758Z,17.71
2022-09-28T02:14:21.808Z,17.73
2022-09-28T02:17:16.220Z,17.74
2022-09-28T02:20:10.033Z,17.66
2022-09-28T02:23:03.157Z,17.62
2022-09-28T02:25:49.900Z,17.63
2022-09-28T02:28:33.090Z,17.72
2022-09-28T02:31:25.233Z,17.83
2022-09-28T02:34:17.434Z,17.95
2022-09-28T02:37:09.830Z,18.07
2022-09-28T02:40:02.051Z,17.98
2022-09-28T02:43:03.210Z,17.02
2022-09-28T02:46:03.241Z,16.07
2022-09-28T02:49:21.346Z,15.34
2022-09-28T02:52:43.071Z,15.30
2022-09-28T02:55:50.223Z,16.36
2022-09-28T02:58:51.981Z,16.93
2022-09-28T03:01:54.124Z,17.29
2022-09-28T03:04:52.667Z,17.53
2022-09-28T03:07:53.358Z,17.69
2022-09-28T03:10:50.108Z,17.82
2022-09-28T03:13:42.985Z,17.91
2022-09-28T03:16:35.162Z,18.00
2022-09-28T03:19:32.526Z,18.14
2022-09-28T03:22:25.853Z,18.28
2022-09-28T03:25:17.874Z,18.36
2022-09-28T03:28:12.736Z,18.16
2022-09-28T03:31:04.876Z,17.10
2022-09-28T03:33:56.963Z,16.11
2022-09-28T03:36:49.003Z,15.66
2022-09-28T03:39:40.971Z,16.41
2022-09-28T03:42:33.039Z,16.87
2022-09-28T03:45:25.155Z,17.19
2022-09-28T03:48:20.556Z,17.44
2022-09-28T03:51:15.664Z,17.68
2022-09-28T03:54:08.042Z,17.90
2022-09-28T03:57:00.138Z,18.05
2022-09-28T03:59:52.252Z,18.01
2022-09-28T04:02:46.530Z,17.97
2022-09-28T04:05:28.349Z,18.04
2022-09-28T04:08:20.552Z,17.76
2022-09-28T04:11:12.816Z,16.52
2022-09-28T04:13:57.855Z,15.39
2022-09-28T04:16:52.285Z,14.85
2022-09-28T04:19:47.515Z,15.53
2022-09-28T04:22:51.365Z,16.01
2022-09-28T04:25:46.083Z,16.15
2022-09-28T04:28:55.394Z,16.17
2022-09-28T04:31:49.759Z,16.31
2022-09-28T04:34:29.808Z,16.43
2022-09-28T04:37:23.941Z,16.51
2022-09-28T04:40:16.194Z,16.64
2022-09-28T04:43:09.026Z,16.77
2022-09-28T04:46:02.869Z,16.80
2022-09-28T04:48:54.871Z,16.90
2022-09-28T04:52:05.294Z,17.21
2022-09-28T04:54:57.254Z,17.48
2022-09-28T04:57:49.495Z,17.40
2022-09-28T05:00:41.607Z,16.37
2022-09-28T05:03:39.833Z,15.35
2022-09-28T05:06:40.561Z,14.64
2022-09-28T05:09:37.685Z,14.37
2022-09-28T05:12:30.513Z,15.21
2022-09-28T05:15:22.505Z,16.04
2022-09-28T05:18:14.449Z,16.62
2022-09-28T05:21:16.490Z,17.00
2022-09-28T05:24:08.870Z,17.25
2022-09-28T05:27:00.948Z,17.50
2022-09-28T05:29:53.056Z,17.77
2022-09-28T05:32:44.254Z,17.73
2022-09-28T05:35:36.256Z,16.70
2022-09-28T05:38:28.490Z,15.76
2022-09-28T05:41:12.144Z,15.35
2022-09-28T05:44:04.679Z,16.23
2022-09-28T05:46:54.191Z,17.06
2022-09-28T05:49:36.227Z,17.63
2022-09-28T05:52:28.344Z,17.92
2022-09-28T05:55:20.421Z,18.14
2022-09-28T05:58:12.779Z,17.99
2022-09-28T06:01:04.762Z,16.87
2022-09-28T06:03:56.748Z,15.88
2022-09-28T06:06:41.278Z,15.50
2022-09-28T06:09:33.322Z,16.42
2022-09-28T06:12:25.798Z,17.26
2022-09-28T06:15:18.473Z,17.74
2022-09-28T06:18:14.231Z,17.77
2022-09-28T06:21:08.334Z,16.76
2022-09-28T06:24:00.286Z,15.85
2022-09-28T06:26:52.327Z,15.52
2022-09-28T06:29:44.300Z,16.45
2022-09-28T06:32:36.354Z,17.26
2022-09-28T06:35:30.376Z,17.61
2022-09-28T06:38:22.340Z,17.90
2022-09-28T06:41:14.841Z,17.87
2022-09-28T06:43:57.137Z,16.97
2022-09-28T06:46:47.267Z,16.13
2022-09-28T06:49:41.967Z,15.51
2022-09-28T06:52:39.619Z,15.62
2022-09-28T06:55:31.766Z,16.96
2022-09-28T06:58:24.193Z,18.08
2022-09-28T07:01:16.257Z,18.84
2022-09-28T07:04:08.361Z,18.73
2022-09-28T07:06:59.185Z,17.56
2022-09-28T07:10:13.007Z,16.48
2022-09-28T07:13:10.494Z,15.75
2022-09-28T07:15:57.047Z,15.52
2022-09-28T07:18:42.328Z,16.59
2022-09-28T07:21:34.775Z,17.60
2022-09-28T07:24:19.957Z,18.20
2022-09-28T07:27:23.433Z,18.17
2022-09-28T07:30:09.313Z,17.27
2022-09-28T07:32:59.353Z,16.52
2022-09-28T07:35:55.742Z,15.96
2022-09-28T07:38:47.694Z,15.31
2022-09-28T07:41:39.976Z,14.81
2022-09-28T07:44:32.167Z,14.61
2022-09-28T07:47:30.814Z,15.65
2022-09-28T07:50:34.843Z,16.98
2022-09-28T07:53:36.065Z,17.32
2022-09-28T07:56:28.087Z,16.49
2022-09-28T07:59:23.035Z,15.71
2022-09-28T08:02:20.344Z,15.15
2022-09-28T08:05:12.546Z,14.83
2022-09-28T08:08:06.971Z,14.71
2022-09-28T08:10:53.708Z,14.62
2022-09-28T08:13:48.882Z,14.59
2022-09-28T08:16:40.920Z,14.51
2022-09-28T08:19:51.227Z,14.49
2022-09-28T08:22:43.177Z,14.50
2022-09-28T08:25:38.371Z,14.58
2022-09-28T08:28:30.462Z,15.55
2022-09-28T08:31:07.816Z,16.96
2022-09-28T08:34:14.878Z,17.71
2022-09-28T08:37:22.083Z,17.14
2022-09-28T08:40:29.046Z,16.57
2022-09-28T08:43:43.759Z,16.14
2022-09-28T08:46:43.466Z,15.85
2022-09-28T08:49:44.287Z,15.63
2022-09-28T08:52:44.128Z,15.38
2022-09-28T08:55:45.438Z,15.19
2022-09-28T08:58:42.574Z,14.98
2022-09-28T09:01:41.385Z,14.79
2022-09-28T09:04:35.140Z,14.63
2022-09-28T09:07:49.327Z,14.64
2022-09-28T09:10:51.277Z,14.66
2022-09-28T09:14:01.939Z,15.47
2022-09-28T09:17:03.258Z,17.30
2022-09-28T09:20:07.300Z,18.44
2022-09-28T09:23:05.756Z,18.24
2022-09-28T09:25:54.912Z,17.99
2022-09-28T09:29:06.981Z,17.90
2022-09-28T09:32:17.781Z,17.81
2022-09-28T09:35:31.508Z,17.81
2022-09-28T09:38:39.808Z,17.88
2022-09-28T09:41:43.647Z,17.92
2022-09-28T09:44:53.334Z,17.80
2022-09-28T09:48:01.145Z,17.62
2022-09-28T09:50:57.417Z,17.45
2022-09-28T09:53:51.006Z,17.33
2022-09-28T09:56:49.106Z,17.28
2022-09-28T09:59:45.948Z,17.10
2022-09-28T10:02:51.990Z,16.95
2022-09-28T10:05:49.489Z,16.84
2022-09-28T10:08:47.207Z,16.64
2022-09-28T10:11:44.118Z,16.53
2022-09-28T10:14:36.583Z,16.51
2022-09-28T10:17:28.596Z,16.37
2022-09-28T10:20:38.971Z,16.17
2022-09-28T10:23:37.226Z,15.95
2022-09-28T10:26:35.534Z,15.83
2022-09-28T10:29:35.973Z,15.90
2022-09-28T10:32:37.716Z,16.05
2022-09-28T10:35:41.811Z,16.19
2022-09-28T10:38:34.807Z,16.32
2022-09-28T10:41:33.317Z,16.56
2022-09-28T10:44:22.455Z,16.81
2022-09-28T10:47:26.164Z,17.06
2022-09-28T10:50:25.507Z,17.31
2022-09-28T10:53:23.571Z,17.53
2022-09-28T10:56:32.904Z,17.69
2022-09-28T10:59:40.270Z,17.76
2022-09-28T11:02:35.941Z,17.79
2022-09-28T11:05:30.056Z,17.97
2022-09-28T11:08:26.495Z,18.27
2022-09-28T11:11:20.535Z,18.50
2022-09-28T11:14:26.989Z,18.46
2022-09-28T11:17:26.476Z,18.51
2022-09-28T11:20:35.590Z,18.65
2022-09-28T11:23:32.224Z,18.84
2022-09-28T11:26:25.344Z,18.99
2022-09-28T11:29:36.000Z,18.96
2022-09-28T11:32:45.689Z,18.81
2022-09-28T11:36:06.543Z,18.74
2022-09-28T11:39:08.804Z,18.61
2022-09-28T11:42:25.053Z,18.50
2022-09-28T11:45:33.846Z,18.40
2022-09-28T11:48:31.564Z,18.42
2022-09-28T11:51:27.622Z,18.45
2022-09-28T11:54:28.993Z,18.30
2022-09-28T11:57:28.919Z,18.24
2022-09-28T12:00:23.354Z,18.25
2022-09-28T12:03:02.573Z,18.30
2022-09-28T12:06:01.262Z,18.47
2022-09-28T12:08:53.777Z,18.61
2022-09-28T12:11:45.213Z,18.78
2022-09-28T12:14:42.426Z,18.93
2022-09-28T12:17:23.433Z,19.14
2022-09-28T12:20:21.786Z,19.46
2022-09-28T12:23:03.789Z,19.64
2022-09-28T12:26:00.247Z,19.73
2022-09-28T12:28:56.756Z,19.75
2022-09-28T12:31:42.248Z,19.60
2022-09-28T12:34:34.598Z,19.49
2022-09-28T12:37:54.501Z,19.44
2022-09-28T12:40:56.407Z,19.24
2022-09-28T12:43:54.590Z,19.04
2022-09-28T12:46:57.484Z,18.94
2022-09-28T12:52:47.167Z,18.79
2022-09-28T12:56:01.275Z,18.77
2022-09-28T12:59:06.793Z,18.75
2022-09-28T13:02:20.542Z,18.72
2022-09-28T13:05:38.847Z,18.73
2022-09-28T13:08:41.017Z,18.73
2022-09-28T13:11:41.658Z,18.72
2022-09-28T13:15:09.934Z,18.73
2022-09-28T13:18:09.431Z,18.73
2022-09-28T13:21:24.064Z,18.73
2022-09-28T13:24:14.395Z,18.75
2022-09-28T13:27:17.322Z,18.77
2022-09-28T13:29:55.687Z,18.77
2022-09-28T13:32:51.732Z,18.77
2022-09-28T13:35:46.046Z,18.77
2022-09-28T13:38:53.025Z,18.78
2022-09-28T13:41:50.753Z,18.75
2022-09-28T13:45:03.872Z,18.71
2022-09-28T13:48:12.636Z,18.68
2022-09-28T13:51:17.081Z,18.65
2022-09-28T13:54:26.082Z,18.65
2022-09-28T13:57:26.105Z,18.68
2022-09-28T14:00:24.754Z,18.70
2022-09-28T14:03:28.844Z,18.76
2022-09-28T14:06:29.786Z,18.79
2022-09-28T14:09:43.775Z,18.81
2022-09-28T14:12:51.613Z,18.87
2022-09-28T14:15:48.105Z,18.96
2022-09-28T14:18:33.603Z,18.94
2022-09-28T14:21:36.239Z,18.87
2022-09-28T14:24:46.061Z,18.96
2022-09-28T14:28:05.009Z,19.08
2022-09-28T14:30:59.768Z,19.07
2022-09-28T14:34:00.135Z,18.96
2022-09-28T14:37:06.957Z,18.80
2022-09-28T14:40:01.548Z,18.68
2022-09-28T14:43:25.412Z,18.58
2022-09-28T14:46:40.569Z,18.51
2022-09-28T14:50:00.814Z,18.48
2022-09-28T14:52:48.087Z,18.43
2022-09-28T14:55:50.414Z,18.35
2022-09-28T14:58:33.712Z,18.30
2022-09-28T15:01:21.325Z,18.26
2022-09-28T15:04:15.878Z,18.22
2022-09-28T15:07:07.929Z,18.19
2022-09-28T15:10:02.775Z,18.13
2022-09-28T15:12:56.123Z,18.11
2022-09-28T15:15:42.373Z,18.08
2022-09-28T15:18:59.262Z,18.03
2022-09-28T15:21:52.474Z,17.99
2022-09-28T15:24:59.952Z,17.93
2022-09-28T15:27:56.529Z,17.85
2022-09-28T15:30:49.226Z,17.77
2022-09-28T15:34:01.588Z,17.69
2022-09-28T15:36:56.494Z,17.52
2022-09-28T15:39:48.766Z,17.35
2022-09-28T15:42:39.307Z,17.21
2022-09-28T15:45:36.758Z,17.05
2022-09-28T15:48:32.478Z,16.90
2022-09-28T15:51:15.920Z,16.72
2022-09-28T15:54:19.725Z,16.53
2022-09-28T15:57:33.400Z,16.34
2022-09-28T16:00:29.585Z,16.14
2022-09-28T16:03:20.271Z,15.97
2022-09-28T16:06:13.780Z,15.77
2022-09-28T16:08:49.541Z,15.62
2022-09-28T16:11:40.735Z,15.46
2022-09-28T16:14:31.489Z,15.30
2022-09-28T16:17:20.002Z,15.16
2022-09-28T16:19:54.582Z,15.02
2022-09-28T16:22:28.887Z,14.91
2022-09-28T16:25:03.143Z,14.79
2022-09-28T16:27:43.641Z,14.67
2022-09-28T16:30:36.489Z,14.55
2022-09-28T16:33:39.199Z,14.43
2022-09-28T16:36:27.501Z,14.33
2022-09-28T16:39:20.713Z,14.22
2022-09-28T16:42:14.556Z,14.12
2022-09-28T16:44:46.950Z,14.06
2022-09-28T16:47:40.589Z,14.41
2022-09-28T16:50:32.985Z,15.94
2022-09-28T16:53:43.205Z,17.19
2022-09-28T16:56:36.846Z,17.67
2022-09-28T16:59:13.891Z,17.05
2022-09-28T17:02:46.316Z,16.40
2022-09-28T17:05:31.759Z,15.86
2022-09-28T17:08:25.818Z,15.55
2022-09-28T17:11:24.274Z,15.28
2022-09-28T17:14:17.097Z,15.03
2022-09-28T17:17:12.665Z,14.84
2022-09-28T17:20:17.023Z,14.67
2022-09-28T17:23:09.359Z,14.51
2022-09-28T17:26:02.775Z,14.40
2022-09-28T17:28:46.011Z,14.31
2022-09-28T17:31:38.196Z,14.24
2022-09-28T17:34:30.369Z,14.17
2022-09-28T17:37:22.484Z,14.07
2022-09-28T17:40:22.146Z,13.97
2022-09-28T17:43:14.639Z,13.89
2022-09-28T17:46:26.249Z,13.81
2022-09-28T17:49:19.298Z,13.74
2022-09-28T17:52:11.266Z,13.69
2022-09-28T17:55:03.621Z,13.66
2022-09-28T17:57:48.784Z,13.64
2022-09-28T18:00:41.060Z,13.63
2022-09-28T18:03:33.324Z,13.61
2022-09-28T18:06:25.893Z,13.59
2022-09-28T18:09:25.129Z,13.55
2022-09-28T18:12:18.354Z,13.97
2022-09-28T18:15:12.957Z,15.53
2022-09-28T18:18:09.531Z,16.77
2022-09-28T18:21:02.876Z,17.26
2022-09-28T18:23:45.465Z,16.58
2022-09-28T18:26:28.331Z,15.88
2022-09-28T18:29:21.328Z,15.32
2022-09-28T18:32:14.277Z,14.88
2022-09-28T18:35:10.264Z,14.54
2022-09-28T18:38:05.406Z,14.26
2022-09-28T18:40:58.180Z,14.01
2022-09-28T18:43:45.057Z,13.82
2022-09-28T18:46:28.329Z,13.65
2022-09-28T18:49:21.238Z,13.91
2022-09-28T18:52:13.950Z,15.43
2022-09-28T18:55:07.894Z,16.68
2022-09-28T18:58:00.512Z,17.13
2022-09-28T19:00:53.828Z,16.34
2022-09-28T19:03:53.131Z,15.50
2022-09-28T19:06:47.606Z,14.94
2022-09-28T19:09:43.982Z,14.54
2022-09-28T19:12:36.394Z,14.21
2022-09-28T19:15:29.555Z,13.96
2022-09-28T19:18:22.441Z,13.78
2022-09-28T19:21:16.757Z,14.03
2022-09-28T19:24:07.824Z,15.49
2022-09-28T19:26:54.507Z,16.61
2022-09-28T19:29:46.512Z,17.39
2022-09-28T19:32:39.151Z,17.62
2022-09-28T19:35:31.243Z,16.73
2022-09-28T19:38:23.339Z,15.84
2022-09-28T19:41:39.406Z,15.17
2022-09-28T19:44:36.487Z,14.56
2022-09-28T19:47:28.819Z,14.13
2022-09-28T19:50:20.901Z,13.76
2022-09-28T19:53:12.868Z,13.84
2022-09-28T19:56:06.191Z,15.28
2022-09-28T19:58:58.317Z,16.43
2022-09-28T20:01:52.079Z,17.08
2022-09-28T20:04:44.149Z,17.15
2022-09-28T20:07:36.839Z,16.21
2022-09-28T20:10:28.846Z,15.32
2022-09-28T20:13:21.503Z,14.65
2022-09-28T20:16:15.536Z,14.14
2022-09-28T20:19:07.885Z,13.75
2022-09-28T20:22:03.287Z,13.83
2022-09-28T20:24:55.518Z,15.20
2022-09-28T20:27:47.507Z,16.34
2022-09-28T20:30:39.783Z,17.04
2022-09-28T20:33:33.768Z,17.17
2022-09-28T20:36:26.902Z,16.23
2022-09-28T20:39:19.099Z,15.33
2022-09-28T20:42:11.758Z,14.68
2022-09-28T20:45:03.941Z,14.16
2022-09-28T20:47:46.887Z,13.78
2022-09-28T20:50:38.939Z,13.46
2022-09-28T20:53:31.356Z,13.61
2022-09-28T20:56:25.003Z,15.05
2022-09-28T20:59:17.325Z,16.25
2022-09-28T21:01:59.367Z,16.97
2022-09-28T21:04:51.424Z,17.13
2022-09-28T21:07:43.505Z,16.23
2022-09-28T21:10:35.555Z,15.37
2022-09-28T21:13:28.528Z,14.75
2022-09-28T21:16:20.784Z,14.27
2022-09-28T21:19:12.753Z,13.89
2022-09-28T21:22:04.833Z,13.58
2022-09-28T21:24:56.568Z,13.33
2022-09-28T21:27:48.754Z,13.55
2022-09-28T21:30:41.583Z,15.09
2022-09-28T21:33:33.690Z,16.29
2022-09-28T21:36:26.348Z,17.02
2022-09-28T21:39:10.814Z,17.15
2022-09-28T21:42:03.866Z,16.21
2022-09-28T21:44:59.373Z,15.34
2022-09-28T21:47:53.958Z,14.71
2022-09-28T21:50:44.692Z,14.24
2022-09-28T21:53:38.588Z,13.87
2022-09-28T21:56:30.822Z,13.61
2022-09-28T21:59:22.893Z,13.39
2022-09-28T22:02:14.961Z,13.67
2022-09-28T22:05:08.472Z,15.20
2022-09-28T22:08:01.169Z,16.44
2022-09-28T22:11:01.946Z,16.93
2022-09-28T22:13:56.075Z,16.15
2022-09-28T22:16:48.059Z,15.39
2022-09-28T22:19:41.715Z,14.88
2022-09-28T22:22:33.763Z,14.50
2022-09-28T22:25:09.553Z,14.24
2022-09-28T22:27:54.418Z,14.01
2022-09-28T22:30:46.835Z,13.83
2022-09-28T22:33:39.733Z,13.66
2022-09-28T22:36:32.606Z,13.95
2022-09-28T22:39:24.567Z,15.33
2022-09-28T22:42:17.515Z,16.41
2022-09-28T22:45:10.358Z,17.08
2022-09-28T22:48:03.497Z,17.22
2022-09-28T22:50:55.499Z,16.45
2022-09-28T22:53:48.302Z,15.74
2022-09-28T22:56:40.263Z,15.21
2022-09-28T22:59:33.041Z,14.79
2022-09-28T23:02:14.905Z,14.46
2022-09-28T23:05:08.165Z,14.19
2022-09-28T23:08:00.219Z,13.96
2022-09-28T23:10:52.543Z,13.77
2022-09-28T23:13:26.681Z,13.63
2022-09-28T23:16:11.613Z,13.85
2022-09-28T23:19:03.762Z,15.36
2022-09-28T23:21:58.629Z,16.50
2022-09-28T23:24:50.616Z,16.70
2022-09-28T23:27:47.707Z,16.01
2022-09-28T23:30:42.230Z,15.34
2022-09-28T23:33:34.455Z,14.88
2022-09-28T23:36:26.712Z,14.55
2022-09-28T23:39:18.814Z,14.28
2022-09-28T23:42:10.921Z,14.06
2022-09-28T23:45:02.959Z,13.88
2022-09-28T23:47:54.959Z,13.74
2022-09-28T23:50:47.678Z,13.82
2022-09-28T23:53:39.769Z,14.76
2022-09-28T23:56:31.761Z,15.97
2022-09-28T23:59:23.854Z,16.67
